createdAt,value
2018-09-13T00:00:04.308Z,24.55
2018-09-13T00:00:35.945Z,24.54
2018-09-13T00:01:07.531Z,24.52
2018-09-13T00:01:39.134Z,24.51
2018-09-13T00:02:10.724Z,24.50
2018-09-13T00:02:42.326Z,24.49
2018-09-13T00:03:13.930Z,24.47
2018-09-13T00:03:45.535Z,24.46
2018-09-13T00:04:17.139Z,24.45
2018-09-13T00:04:48.738Z,24.45
2018-09-13T00:05:20.324Z,24.44
2018-09-13T00:05:51.972Z,24.43
2018-09-13T00:06:23.543Z,24.42
2018-09-13T00:06:55.132Z,24.42
2018-09-13T00:07:26.738Z,24.41
2018-09-13T00:07:58.327Z,24.40
2018-09-13T00:08:29.912Z,24.40
2018-09-13T00:09:01.496Z,24.41
2018-09-13T00:09:33.110Z,24.40
2018-09-13T00:10:04.705Z,24.40
2018-09-13T00:10:36.588Z,24.38
2018-09-13T00:11:08.213Z,24.39
2018-09-13T00:11:39.817Z,24.38
2018-09-13T00:12:11.408Z,24.38
2018-09-13T00:12:43.014Z,24.37
2018-09-13T00:13:14.622Z,24.37
2018-09-13T00:13:46.226Z,24.36
2018-09-13T00:14:17.820Z,24.36
2018-09-13T00:14:49.407Z,24.39
2018-09-13T00:15:21.000Z,24.41
2018-09-13T00:15:52.629Z,24.42
2018-09-13T00:16:24.234Z,24.43
2018-09-13T00:16:55.820Z,24.43
2018-09-13T00:17:27.425Z,24.43
2018-09-13T00:17:59.030Z,24.44
2018-09-13T00:18:30.625Z,24.44
2018-09-13T00:19:02.212Z,24.43
2018-09-13T00:19:33.816Z,24.43
2018-09-13T00:20:05.409Z,24.43
2018-09-13T00:20:37.000Z,24.42
2018-09-13T00:21:08.629Z,24.41
2018-09-13T00:21:40.234Z,24.40
2018-09-13T00:22:11.837Z,24.40
2018-09-13T00:22:43.423Z,24.40
2018-09-13T00:23:15.042Z,24.39
2018-09-13T00:23:46.646Z,24.39
2018-09-13T00:24:18.226Z,24.39
2018-09-13T00:24:49.802Z,24.38
2018-09-13T00:25:21.396Z,24.39
2018-09-13T00:25:53.026Z,24.41
2018-09-13T00:26:24.622Z,24.44
2018-09-13T00:26:56.222Z,24.48
2018-09-13T00:27:27.812Z,24.48
2018-09-13T00:27:59.415Z,24.49
2018-09-13T00:28:30.994Z,24.50
2018-09-13T00:29:02.571Z,24.48
2018-09-13T00:29:34.169Z,24.47
2018-09-13T00:30:05.748Z,24.46
2018-09-13T00:30:37.353Z,24.46
2018-09-13T00:31:08.982Z,24.45
2018-09-13T00:31:40.581Z,24.44
2018-09-13T00:32:12.171Z,24.44
2018-09-13T00:32:43.755Z,24.44
2018-09-13T00:33:15.356Z,24.44
2018-09-13T00:33:46.962Z,24.44
2018-09-13T00:34:18.591Z,24.25
2018-09-13T00:34:50.199Z,24.45
2018-09-13T00:35:21.787Z,24.45
2018-09-13T00:35:53.782Z,24.45
2018-09-13T00:36:25.388Z,24.45
2018-09-13T00:36:56.980Z,24.46
2018-09-13T00:37:28.582Z,24.45
2018-09-13T00:38:00.176Z,24.44
2018-09-13T00:38:31.754Z,24.44
2018-09-13T00:39:03.340Z,24.44
2018-09-13T00:39:34.931Z,24.45
2018-09-13T00:40:06.515Z,24.45
2018-09-13T00:40:38.094Z,24.44
2018-09-13T00:41:09.708Z,24.45
2018-09-13T00:41:41.307Z,24.44
2018-09-13T00:42:12.909Z,24.44
2018-09-13T00:42:44.518Z,24.43
2018-09-13T00:43:16.112Z,24.43
2018-09-13T00:43:47.714Z,24.43
2018-09-13T00:44:19.327Z,24.43
2018-09-13T00:44:50.929Z,24.43
2018-09-13T00:45:22.535Z,24.42
2018-09-13T00:45:54.128Z,24.41
2018-09-13T00:46:25.734Z,24.41
2018-09-13T00:46:57.324Z,24.40
2018-09-13T00:47:28.912Z,24.39
2018-09-13T00:48:00.514Z,24.39
2018-09-13T00:48:32.103Z,24.39
2018-09-13T00:49:03.764Z,24.39
2018-09-13T00:49:35.328Z,24.38
2018-09-13T00:50:06.930Z,24.37
2018-09-13T00:50:38.521Z,24.37
2018-09-13T00:51:10.471Z,24.37
2018-09-13T00:51:42.056Z,24.36
2018-09-13T00:52:13.643Z,24.37
2018-09-13T00:52:45.247Z,24.37
2018-09-13T00:53:16.849Z,24.38
2018-09-13T00:53:48.426Z,24.37
2018-09-13T00:54:20.030Z,24.36
2018-09-13T00:54:51.620Z,24.38
2018-09-13T00:55:23.204Z,24.38
2018-09-13T00:55:54.792Z,24.38
2018-09-13T00:56:26.426Z,24.38
2018-09-13T00:56:58.015Z,24.37
2018-09-13T00:57:29.604Z,24.38
2018-09-13T00:58:01.192Z,24.38
2018-09-13T00:58:32.773Z,24.38
2018-09-13T00:59:04.443Z,24.22
2018-09-13T00:59:36.004Z,24.38
2018-09-13T01:00:07.611Z,24.37
2018-09-13T01:00:39.221Z,24.37
2018-09-13T01:01:10.805Z,24.37
2018-09-13T01:01:42.419Z,24.36
2018-09-13T01:02:14.022Z,24.36
2018-09-13T01:02:45.608Z,24.35
2018-09-13T01:03:17.207Z,24.36
2018-09-13T01:03:48.805Z,24.35
2018-09-13T01:04:20.382Z,24.35
2018-09-13T01:04:51.972Z,24.36
2018-09-13T01:05:23.579Z,24.36
2018-09-13T01:05:55.182Z,24.36
2018-09-13T01:06:27.375Z,24.36
2018-09-13T01:06:58.950Z,24.35
2018-09-13T01:07:30.551Z,24.35
2018-09-13T01:08:02.140Z,24.35
2018-09-13T01:08:33.728Z,24.35
2018-09-13T01:09:05.332Z,24.35
2018-09-13T01:09:36.938Z,24.34
2018-09-13T01:10:08.546Z,24.34
2018-09-13T01:10:40.145Z,24.34
2018-09-13T01:11:11.750Z,24.34
2018-09-13T01:11:43.386Z,24.34
2018-09-13T01:12:14.972Z,24.34
2018-09-13T01:12:46.564Z,24.34
2018-09-13T01:13:18.159Z,24.34
2018-09-13T01:13:49.757Z,24.34
2018-09-13T01:14:21.364Z,24.34
2018-09-13T01:14:52.955Z,24.35
2018-09-13T01:15:24.544Z,24.33
2018-09-13T01:15:56.151Z,24.33
2018-09-13T01:16:27.740Z,24.32
2018-09-13T01:16:59.366Z,24.30
2018-09-13T01:17:30.961Z,24.28
2018-09-13T01:18:02.569Z,24.27
2018-09-13T01:18:34.178Z,24.25
2018-09-13T01:19:05.758Z,24.23
2018-09-13T01:19:37.359Z,24.23
2018-09-13T01:20:08.951Z,24.22
2018-09-13T01:20:40.544Z,24.20
2018-09-13T01:21:12.150Z,24.20
2018-09-13T01:21:43.754Z,24.19
2018-09-13T01:22:15.372Z,24.18
2018-09-13T01:22:46.950Z,24.17
2018-09-13T01:23:18.535Z,24.17
2018-09-13T01:23:50.124Z,24.15
2018-09-13T01:24:21.726Z,24.15
2018-09-13T01:24:53.333Z,24.14
2018-09-13T01:25:24.929Z,24.13
2018-09-13T01:25:56.530Z,24.12
2018-09-13T01:26:28.133Z,24.09
2018-09-13T01:26:59.756Z,24.11
2018-09-13T01:27:31.348Z,24.11
2018-09-13T01:28:02.936Z,24.10
2018-09-13T01:28:34.524Z,24.09
2018-09-13T01:29:06.126Z,24.08
2018-09-13T01:29:37.725Z,24.09
2018-09-13T01:30:09.315Z,24.09
2018-09-13T01:30:40.908Z,24.09
2018-09-13T01:31:12.514Z,24.08
2018-09-13T01:31:44.119Z,24.06
2018-09-13T01:32:15.759Z,24.07
2018-09-13T01:32:47.370Z,24.07
2018-09-13T01:33:18.960Z,24.07
2018-09-13T01:33:50.563Z,24.06
2018-09-13T01:34:22.162Z,24.07
2018-09-13T01:34:53.765Z,24.07
2018-09-13T01:35:25.368Z,24.07
2018-09-13T01:35:56.955Z,24.08
2018-09-13T01:36:28.544Z,24.06
2018-09-13T01:37:00.156Z,24.05
2018-09-13T01:37:31.734Z,24.04
2018-09-13T01:38:03.319Z,24.02
2018-09-13T01:38:34.924Z,24.02
2018-09-13T01:39:06.530Z,24.02
2018-09-13T01:39:38.122Z,24.01
2018-09-13T01:40:09.711Z,24.02
2018-09-13T01:40:41.304Z,24.01
2018-09-13T01:41:12.905Z,24.01
2018-09-13T01:41:44.510Z,24.01
2018-09-13T01:42:16.124Z,24.00
2018-09-13T01:42:47.708Z,24.00
2018-09-13T01:43:19.310Z,23.98
2018-09-13T01:43:50.900Z,24.00
2018-09-13T01:44:22.478Z,23.99
2018-09-13T01:44:54.057Z,23.98
2018-09-13T01:45:25.663Z,23.99
2018-09-13T01:45:57.251Z,23.98
2018-09-13T01:46:28.835Z,23.96
2018-09-13T01:47:00.432Z,23.97
2018-09-13T01:47:32.035Z,23.97
2018-09-13T01:48:03.625Z,23.96
2018-09-13T01:48:35.235Z,23.95
2018-09-13T01:49:06.818Z,23.94
2018-09-13T01:49:38.404Z,23.94
2018-09-13T01:50:09.994Z,23.93
2018-09-13T01:50:41.580Z,23.92
2018-09-13T01:51:13.182Z,23.93
2018-09-13T01:51:44.772Z,23.94
2018-09-13T01:52:16.363Z,23.93
2018-09-13T01:52:47.952Z,23.93
2018-09-13T01:53:19.554Z,23.93
2018-09-13T01:53:51.157Z,23.94
2018-09-13T01:54:22.744Z,23.93
2018-09-13T01:54:54.331Z,23.90
2018-09-13T01:55:25.924Z,23.92
2018-09-13T01:55:57.512Z,23.93
2018-09-13T01:56:29.114Z,23.92
2018-09-13T01:57:00.704Z,23.91
2018-09-13T01:57:32.295Z,23.91
2018-09-13T01:58:03.898Z,23.91
2018-09-13T01:58:35.484Z,23.91
2018-09-13T01:59:07.088Z,23.96
2018-09-13T01:59:38.697Z,23.98
2018-09-13T02:00:10.302Z,23.84
2018-09-13T02:00:41.895Z,24.03
2018-09-13T02:01:13.480Z,24.05
2018-09-13T02:01:45.087Z,24.06
2018-09-13T02:02:16.690Z,24.08
2018-09-13T02:02:48.277Z,24.09
2018-09-13T02:03:19.886Z,24.09
2018-09-13T02:03:51.481Z,24.09
2018-09-13T02:04:23.060Z,24.05
2018-09-13T02:04:54.634Z,24.07
2018-09-13T02:05:26.238Z,24.06
2018-09-13T02:05:57.832Z,24.06
2018-09-13T02:06:29.424Z,24.07
2018-09-13T02:07:01.012Z,24.05
2018-09-13T02:07:32.648Z,24.04
2018-09-13T02:08:04.216Z,24.03
2018-09-13T02:08:35.784Z,24.03
2018-09-13T02:09:07.376Z,24.02
2018-09-13T02:09:38.948Z,24.02
2018-09-13T02:10:10.516Z,24.01
2018-09-13T02:10:42.080Z,24.01
2018-09-13T02:11:13.672Z,24.00
2018-09-13T02:11:45.241Z,24.00
2018-09-13T02:12:16.829Z,24.01
2018-09-13T02:12:48.446Z,24.01
2018-09-13T02:13:20.017Z,24.01
2018-09-13T02:13:51.608Z,24.03
2018-09-13T02:14:23.200Z,24.04
2018-09-13T02:14:54.794Z,24.04
2018-09-13T02:15:26.384Z,24.06
2018-09-13T02:15:57.976Z,24.05
2018-09-13T02:16:29.564Z,24.06
2018-09-13T02:17:01.164Z,24.04
2018-09-13T02:17:32.789Z,24.04
2018-09-13T02:18:04.385Z,24.03
2018-09-13T02:19:46.082Z,24.03
2018-09-13T02:20:17.648Z,24.02
2018-09-13T02:20:49.235Z,24.01
2018-09-13T02:21:20.837Z,24.00
2018-09-13T02:21:52.424Z,24.00
2018-09-13T02:22:24.035Z,23.99
2018-09-13T02:22:55.652Z,23.99
2018-09-13T02:23:27.253Z,23.97
2018-09-13T02:23:58.857Z,23.98
2018-09-13T02:24:30.444Z,23.97
2018-09-13T02:25:02.050Z,23.96
2018-09-13T02:25:33.653Z,23.95
2018-09-13T02:26:05.258Z,23.96
2018-09-13T02:26:36.865Z,23.95
2018-09-13T02:27:08.470Z,23.95
2018-09-13T02:27:40.074Z,23.93
2018-09-13T02:28:11.679Z,23.95
2018-09-13T02:28:43.271Z,23.95
2018-09-13T02:29:14.861Z,23.98
2018-09-13T02:29:46.455Z,23.99
2018-09-13T02:30:18.058Z,24.01
2018-09-13T02:30:49.643Z,24.03
2018-09-13T02:31:21.236Z,24.03
2018-09-13T02:31:52.830Z,24.05
2018-09-13T02:32:24.428Z,23.91
2018-09-13T02:32:56.058Z,24.08
2018-09-13T02:33:27.670Z,24.07
2018-09-13T02:33:59.282Z,24.07
2018-09-13T02:34:30.885Z,24.06
2018-09-13T02:35:02.484Z,24.06
2018-09-13T02:35:34.090Z,24.05
2018-09-13T02:36:05.696Z,24.05
2018-09-13T02:36:37.302Z,24.03
2018-09-13T02:37:08.896Z,24.02
2018-09-13T02:37:40.520Z,24.01
2018-09-13T02:38:12.112Z,24.02
2018-09-13T02:38:43.714Z,24.00
2018-09-13T02:39:15.325Z,23.99
2018-09-13T02:39:46.943Z,23.99
2018-09-13T02:40:18.526Z,23.99
2018-09-13T02:40:50.116Z,24.03
2018-09-13T02:41:21.700Z,24.11
2018-09-13T02:41:53.313Z,24.21
2018-09-13T02:42:24.909Z,24.27
2018-09-13T02:42:56.527Z,24.12
2018-09-13T02:43:28.126Z,24.04
2018-09-13T02:43:59.722Z,24.00
2018-09-13T02:44:31.324Z,23.95
2018-09-13T02:45:02.951Z,23.91
2018-09-13T02:45:34.548Z,23.89
2018-09-13T02:46:06.140Z,23.86
2018-09-13T02:46:37.732Z,23.84
2018-09-13T02:47:09.333Z,23.80
2018-09-13T02:47:40.952Z,23.78
2018-09-13T02:48:12.548Z,23.76
2018-09-13T02:48:44.149Z,23.74
2018-09-13T02:49:15.778Z,23.70
2018-09-13T02:49:47.357Z,23.68
2018-09-13T02:50:18.933Z,23.68
2018-09-13T02:50:50.534Z,23.64
2018-09-13T02:51:22.114Z,23.64
2018-09-13T02:51:53.690Z,23.62
2018-09-13T02:52:25.276Z,23.63
2018-09-13T02:52:56.908Z,23.63
2018-09-13T02:53:28.541Z,23.62
2018-09-13T02:54:00.146Z,23.42
2018-09-13T02:54:31.725Z,23.60
2018-09-13T02:55:03.311Z,23.59
2018-09-13T02:55:34.923Z,23.55
2018-09-13T02:56:06.513Z,23.57
2018-09-13T02:56:38.099Z,23.59
2018-09-13T02:57:09.697Z,23.60
2018-09-13T02:57:41.293Z,23.59
2018-09-13T02:58:12.920Z,23.58
2018-09-13T02:58:44.526Z,23.57
2018-09-13T02:59:16.115Z,23.54
2018-09-13T02:59:47.713Z,23.55
2018-09-13T03:00:19.309Z,23.58
2018-09-13T03:00:53.081Z,23.61
2018-09-13T03:01:24.686Z,23.63
2018-09-13T03:01:56.275Z,23.67
2018-09-13T03:02:28.197Z,23.69
2018-09-13T03:02:59.814Z,23.71
2018-09-13T03:03:31.423Z,23.73
2018-09-13T03:04:03.030Z,23.75
2018-09-13T03:04:34.627Z,23.74
2018-09-13T03:05:06.216Z,23.76
2018-09-13T03:05:37.817Z,23.78
2018-09-13T03:06:09.421Z,23.78
2018-09-13T03:06:41.003Z,23.79
2018-09-13T03:07:12.592Z,23.79
2018-09-13T03:07:44.194Z,23.79
2018-09-13T03:08:15.842Z,23.79
2018-09-13T03:08:47.446Z,23.80
2018-09-13T03:09:19.064Z,23.79
2018-09-13T03:09:50.666Z,23.80
2018-09-13T03:10:22.271Z,23.80
2018-09-13T03:10:53.878Z,23.80
2018-09-13T03:11:25.462Z,23.80
2018-09-13T03:11:57.056Z,23.80
2018-09-13T03:12:28.650Z,23.80
2018-09-13T03:13:00.277Z,23.79
2018-09-13T03:13:31.868Z,23.79
2018-09-13T03:14:03.469Z,23.79
2018-09-13T03:14:35.074Z,23.79
2018-09-13T03:15:06.673Z,23.79
2018-09-13T03:15:38.254Z,23.78
2018-09-13T03:16:09.849Z,23.78
2018-09-13T03:16:41.444Z,23.78
2018-09-13T03:17:13.054Z,23.78
2018-09-13T03:17:44.662Z,23.78
2018-09-13T03:18:16.294Z,23.78
2018-09-13T03:18:47.902Z,23.78
2018-09-13T03:19:19.508Z,23.77
2018-09-13T03:19:51.114Z,23.78
2018-09-13T03:20:22.729Z,23.77
2018-09-13T03:20:54.320Z,23.77
2018-09-13T03:21:25.904Z,23.77
2018-09-13T03:21:57.511Z,23.75
2018-09-13T03:22:29.109Z,23.77
2018-09-13T03:23:01.564Z,23.76
2018-09-13T03:23:33.265Z,23.76
2018-09-13T03:24:04.870Z,23.75
2018-09-13T03:24:36.474Z,23.76
2018-09-13T03:25:08.073Z,23.76
2018-09-13T03:25:39.664Z,23.75
2018-09-13T03:26:11.270Z,23.75
2018-09-13T03:26:42.868Z,23.75
2018-09-13T03:27:14.460Z,23.75
2018-09-13T03:27:46.061Z,23.57
2018-09-13T03:28:17.698Z,23.75
2018-09-13T03:28:49.284Z,23.75
2018-09-13T03:29:20.894Z,23.75
2018-09-13T03:29:52.474Z,23.74
2018-09-13T03:30:24.067Z,23.74
2018-09-13T03:30:55.670Z,23.75
2018-09-13T03:31:27.286Z,23.74
2018-09-13T03:31:58.885Z,23.74
2018-09-13T03:32:30.471Z,23.74
2018-09-13T03:33:02.060Z,23.74
2018-09-13T03:33:33.699Z,23.73
2018-09-13T03:34:05.303Z,23.72
2018-09-13T03:34:36.905Z,23.73
2018-09-13T03:35:08.495Z,23.73
2018-09-13T03:35:40.083Z,23.73
2018-09-13T03:36:11.667Z,23.72
2018-09-13T03:36:43.260Z,23.72
2018-09-13T03:37:14.857Z,23.73
2018-09-13T03:37:46.449Z,23.72
2018-09-13T03:38:18.055Z,23.73
2018-09-13T03:38:49.644Z,23.72
2018-09-13T03:39:21.245Z,23.72
2018-09-13T03:39:52.831Z,23.71
2018-09-13T03:40:24.420Z,23.71
2018-09-13T03:40:56.020Z,23.72
2018-09-13T03:41:27.612Z,23.69
2018-09-13T03:41:59.291Z,23.71
2018-09-13T03:42:30.840Z,23.71
2018-09-13T03:43:02.433Z,23.71
2018-09-13T03:43:34.048Z,23.71
2018-09-13T03:44:05.637Z,23.71
2018-09-13T03:44:37.228Z,23.69
2018-09-13T03:45:08.816Z,23.71
2018-09-13T03:45:40.404Z,23.70
2018-09-13T03:46:11.996Z,23.70
2018-09-13T03:46:43.587Z,23.70
2018-09-13T03:47:15.197Z,23.70
2018-09-13T03:47:46.806Z,23.70
2018-09-13T03:48:18.400Z,23.70
2018-09-13T03:48:49.992Z,23.69
2018-09-13T03:49:21.579Z,23.69
2018-09-13T03:49:53.182Z,23.69
2018-09-13T03:50:24.794Z,23.69
2018-09-13T03:50:56.384Z,23.68
2018-09-13T03:51:27.987Z,23.68
2018-09-13T03:51:59.591Z,23.68
2018-09-13T03:52:31.188Z,23.68
2018-09-13T03:53:02.794Z,23.68
2018-09-13T03:53:34.426Z,23.68
2018-09-13T03:54:06.020Z,23.68
2018-09-13T03:54:37.612Z,23.68
2018-09-13T03:55:09.214Z,23.68
2018-09-13T03:55:40.808Z,23.67
2018-09-13T03:56:12.400Z,23.68
2018-09-13T03:56:44.002Z,23.67
2018-09-13T03:57:15.592Z,23.67
2018-09-13T03:57:47.184Z,23.67
2018-09-13T03:58:18.782Z,23.66
2018-09-13T03:58:50.394Z,23.66
2018-09-13T03:59:21.997Z,23.66
2018-09-13T03:59:53.574Z,23.66
2018-09-13T04:00:25.185Z,23.66
2018-09-13T04:00:56.801Z,23.66
2018-09-13T04:01:28.396Z,23.67
2018-09-13T04:01:59.998Z,23.65
2018-09-13T04:02:31.603Z,23.66
2018-09-13T04:03:03.193Z,23.66
2018-09-13T04:03:34.829Z,23.66
2018-09-13T04:04:06.440Z,23.48
2018-09-13T04:04:38.022Z,23.65
2018-09-13T04:05:09.621Z,23.65
2018-09-13T04:05:41.212Z,23.65
2018-09-13T04:06:12.801Z,23.65
2018-09-13T04:06:44.391Z,23.65
2018-09-13T04:07:15.985Z,23.64
2018-09-13T04:07:47.573Z,23.64
2018-09-13T04:08:19.168Z,23.65
2018-09-13T04:08:50.794Z,23.64
2018-09-13T04:09:22.490Z,23.64
2018-09-13T04:09:54.030Z,23.64
2018-09-13T04:10:25.619Z,23.65
2018-09-13T04:10:57.202Z,23.64
2018-09-13T04:11:28.810Z,23.65
2018-09-13T04:12:00.400Z,23.64
2018-09-13T04:12:32.034Z,23.64
2018-09-13T04:13:03.628Z,23.64
2018-09-13T04:13:35.216Z,23.64
2018-09-13T04:14:06.846Z,23.64
2018-09-13T04:14:39.179Z,23.63
2018-09-13T04:15:10.801Z,23.63
2018-09-13T04:15:42.391Z,23.63
2018-09-13T04:16:13.990Z,23.62
2018-09-13T04:16:45.581Z,23.60
2018-09-13T04:17:17.159Z,23.62
2018-09-13T04:17:48.752Z,23.61
2018-09-13T04:18:20.327Z,23.62
2018-09-13T04:18:51.969Z,23.62
2018-09-13T04:19:23.564Z,23.61
2018-09-13T04:19:55.161Z,23.61
2018-09-13T04:20:26.748Z,23.61
2018-09-13T04:20:58.336Z,23.61
2018-09-13T04:21:29.943Z,23.61
2018-09-13T04:22:01.535Z,23.61
2018-09-13T04:22:33.160Z,23.61
2018-09-13T04:23:04.768Z,23.61
2018-09-13T04:23:36.361Z,23.61
2018-09-13T04:24:07.979Z,23.61
2018-09-13T04:24:39.573Z,23.61
2018-09-13T04:25:11.155Z,23.61
2018-09-13T04:25:42.748Z,23.60
2018-09-13T04:26:14.344Z,23.59
2018-09-13T04:26:45.938Z,23.59
2018-09-13T04:27:17.531Z,23.60
2018-09-13T04:27:49.134Z,23.60
2018-09-13T04:28:20.724Z,23.59
2018-09-13T04:28:52.359Z,23.59
2018-09-13T04:29:23.967Z,23.59
2018-09-13T04:29:55.551Z,23.59
2018-09-13T04:30:27.149Z,23.59
2018-09-13T04:30:58.753Z,23.58
2018-09-13T04:31:30.342Z,23.59
2018-09-13T04:32:01.927Z,23.59
2018-09-13T04:32:33.520Z,23.59
2018-09-13T04:33:05.109Z,23.58
2018-09-13T04:33:36.704Z,23.58
2018-09-13T04:34:08.308Z,23.58
2018-09-13T04:34:39.915Z,23.58
2018-09-13T04:35:11.509Z,23.58
2018-09-13T04:35:43.121Z,23.59
2018-09-13T04:36:14.730Z,23.58
2018-09-13T04:36:46.347Z,23.58
2018-09-13T04:37:17.944Z,23.57
2018-09-13T04:37:49.537Z,23.57
2018-09-13T04:38:21.123Z,23.58
2018-09-13T04:38:52.717Z,23.58
2018-09-13T04:39:24.358Z,23.57
2018-09-13T04:39:55.947Z,23.57
2018-09-13T04:40:27.530Z,23.57
2018-09-13T04:40:59.119Z,23.57
2018-09-13T04:41:30.733Z,23.39
2018-09-13T04:42:02.335Z,23.57
2018-09-13T04:42:33.928Z,23.57
2018-09-13T04:43:05.520Z,23.57
2018-09-13T04:43:37.110Z,23.57
2018-09-13T04:44:08.718Z,23.57
2018-09-13T04:44:40.322Z,23.56
2018-09-13T04:45:11.918Z,23.57
2018-09-13T04:45:43.511Z,23.56
2018-09-13T04:46:15.105Z,23.56
2018-09-13T04:46:46.714Z,23.56
2018-09-13T04:47:18.314Z,23.56
2018-09-13T04:47:49.918Z,23.56
2018-09-13T04:48:21.512Z,23.54
2018-09-13T04:48:53.102Z,23.56
2018-09-13T04:49:24.742Z,23.56
2018-09-13T04:49:56.349Z,23.56
2018-09-13T04:50:27.941Z,23.56
2018-09-13T04:50:59.546Z,23.55
2018-09-13T04:51:31.137Z,23.55
2018-09-13T04:52:02.748Z,23.56
2018-09-13T04:52:34.340Z,23.55
2018-09-13T04:53:05.940Z,23.55
2018-09-13T04:53:37.527Z,23.55
2018-09-13T04:54:09.116Z,23.55
2018-09-13T04:54:40.750Z,23.55
2018-09-13T04:55:12.338Z,23.55
2018-09-13T04:55:43.987Z,23.55
2018-09-13T04:56:15.580Z,23.55
2018-09-13T04:56:47.168Z,23.55
2018-09-13T04:57:18.774Z,23.55
2018-09-13T04:57:50.364Z,23.54
2018-09-13T04:58:21.942Z,23.45
2018-09-13T04:58:53.546Z,23.54
2018-09-13T04:59:25.139Z,23.54
2018-09-13T04:59:56.756Z,23.54
2018-09-13T05:00:28.359Z,23.54
2018-09-13T05:00:59.952Z,23.54
2018-09-13T05:01:31.560Z,23.53
2018-09-13T05:02:03.165Z,23.53
2018-09-13T05:02:34.751Z,23.53
2018-09-13T05:03:06.326Z,23.52
2018-09-13T05:03:37.929Z,23.53
2018-09-13T05:04:09.528Z,23.54
2018-09-13T05:04:41.134Z,23.53
2018-09-13T05:05:12.750Z,23.54
2018-09-13T05:05:44.353Z,23.53
2018-09-13T05:06:15.962Z,23.52
2018-09-13T05:06:47.554Z,23.52
2018-09-13T05:07:19.157Z,23.53
2018-09-13T05:07:50.762Z,23.52
2018-09-13T05:08:22.354Z,23.53
2018-09-13T05:08:53.958Z,23.53
2018-09-13T05:09:25.553Z,23.53
2018-09-13T05:09:57.159Z,23.52
2018-09-13T05:10:28.752Z,23.52
2018-09-13T05:11:00.340Z,23.52
2018-09-13T05:11:31.949Z,23.53
2018-09-13T05:12:03.526Z,23.52
2018-09-13T05:12:35.130Z,23.52
2018-09-13T05:13:06.720Z,23.51
2018-09-13T05:13:38.326Z,23.51
2018-09-13T05:14:09.916Z,23.51
2018-09-13T05:14:41.524Z,23.51
2018-09-13T05:15:13.118Z,23.49
2018-09-13T05:15:44.763Z,23.51
2018-09-13T05:16:16.361Z,23.51
2018-09-13T05:16:47.966Z,23.50
2018-09-13T05:17:19.571Z,23.50
2018-09-13T05:17:51.174Z,23.51
2018-09-13T05:18:22.760Z,23.50
2018-09-13T05:18:54.362Z,23.50
2018-09-13T05:19:25.967Z,23.51
2018-09-13T05:19:57.566Z,23.51
2018-09-13T05:20:29.159Z,23.50
2018-09-13T05:21:00.781Z,23.49
2018-09-13T05:21:32.376Z,23.48
2018-09-13T05:22:03.964Z,23.49
2018-09-13T05:22:35.557Z,23.49
2018-09-13T05:23:07.159Z,23.50
2018-09-13T05:23:38.753Z,23.49
2018-09-13T05:24:10.363Z,23.49
2018-09-13T05:24:41.961Z,23.49
2018-09-13T05:25:13.546Z,23.49
2018-09-13T05:25:45.151Z,23.49
2018-09-13T05:26:16.788Z,23.49
2018-09-13T05:26:48.376Z,23.49
2018-09-13T05:27:19.979Z,23.49
2018-09-13T05:27:51.572Z,23.49
2018-09-13T05:28:23.164Z,23.48
2018-09-13T05:28:54.752Z,23.48
2018-09-13T05:29:26.341Z,23.48
2018-09-13T05:29:57.918Z,23.48
2018-09-13T05:30:29.507Z,23.48
2018-09-13T05:31:01.113Z,23.48
2018-09-13T05:31:32.781Z,23.48
2018-09-13T05:32:04.380Z,23.47
2018-09-13T05:32:35.958Z,23.47
2018-09-13T05:33:07.553Z,23.48
2018-09-13T05:33:39.159Z,23.47
2018-09-13T05:34:10.769Z,23.48
2018-09-13T05:34:42.356Z,23.48
2018-09-13T05:35:13.940Z,23.47
2018-09-13T05:35:45.547Z,23.47
2018-09-13T05:36:17.136Z,23.47
2018-09-13T05:36:48.742Z,23.47
2018-09-13T05:37:20.345Z,23.47
2018-09-13T05:37:51.932Z,23.47
2018-09-13T05:38:23.524Z,23.47
2018-09-13T05:38:55.207Z,23.46
2018-09-13T05:39:26.756Z,23.47
2018-09-13T05:39:58.345Z,23.46
2018-09-13T05:40:29.936Z,23.48
2018-09-13T05:41:01.530Z,23.47
2018-09-13T05:41:33.135Z,23.48
2018-09-13T05:42:04.766Z,23.47
2018-09-13T05:42:36.366Z,23.47
2018-09-13T05:43:07.971Z,23.47
2018-09-13T05:43:39.556Z,23.47
2018-09-13T05:44:11.203Z,23.47
2018-09-13T05:44:42.882Z,23.47
2018-09-13T05:45:14.424Z,23.46
2018-09-13T05:45:46.026Z,23.47
2018-09-13T05:46:17.634Z,23.46
2018-09-13T05:46:49.231Z,23.47
2018-09-13T05:47:20.848Z,23.46
2018-09-13T05:47:52.460Z,23.45
2018-09-13T05:48:24.048Z,23.46
2018-09-13T05:48:55.644Z,23.44
2018-09-13T05:49:27.233Z,23.47
2018-09-13T05:49:58.838Z,23.46
2018-09-13T05:50:30.441Z,23.46
2018-09-13T05:51:02.103Z,23.46
2018-09-13T05:51:33.671Z,23.46
2018-09-13T05:52:05.326Z,23.46
2018-09-13T05:52:36.930Z,23.47
2018-09-13T05:53:08.515Z,23.46
2018-09-13T05:53:40.118Z,23.46
2018-09-13T05:54:11.716Z,23.46
2018-09-13T05:54:43.304Z,23.46
2018-09-13T05:55:14.893Z,23.46
2018-09-13T05:55:46.479Z,23.46
2018-09-13T05:56:18.072Z,23.45
2018-09-13T05:56:49.663Z,23.45
2018-09-13T05:57:21.293Z,23.45
2018-09-13T05:57:52.898Z,23.45
2018-09-13T05:58:24.492Z,23.45
2018-09-13T05:58:56.084Z,23.43
2018-09-13T05:59:27.769Z,23.28
2018-09-13T05:59:59.376Z,23.45
2018-09-13T06:00:30.987Z,23.45
2018-09-13T06:01:02.589Z,23.45
2018-09-13T06:01:34.184Z,23.45
2018-09-13T06:02:05.786Z,23.45
2018-09-13T06:02:37.380Z,23.45
2018-09-13T06:03:08.991Z,23.46
2018-09-13T06:03:40.594Z,23.45
2018-09-13T06:04:12.184Z,23.45
2018-09-13T06:04:43.790Z,23.45
2018-09-13T06:05:15.395Z,23.45
2018-09-13T06:05:46.998Z,23.45
2018-09-13T06:06:18.602Z,23.44
2018-09-13T06:06:50.192Z,23.45
2018-09-13T06:07:21.771Z,23.45
2018-09-13T06:07:53.374Z,23.45
2018-09-13T06:08:24.982Z,23.45
2018-09-13T06:08:56.593Z,23.45
2018-09-13T06:09:28.175Z,23.45
2018-09-13T06:09:59.781Z,23.46
2018-09-13T06:10:31.372Z,23.46
2018-09-13T06:11:02.965Z,23.45
2018-09-13T06:11:34.546Z,23.45
2018-09-13T06:12:06.139Z,23.45
2018-09-13T06:12:37.742Z,23.45
2018-09-13T06:13:09.350Z,23.45
2018-09-13T06:13:41.029Z,23.45
2018-09-13T06:14:12.574Z,23.44
2018-09-13T06:14:44.155Z,23.45
2018-09-13T06:15:15.745Z,23.44
2018-09-13T06:15:47.343Z,23.44
2018-09-13T06:16:18.922Z,23.44
2018-09-13T06:16:50.512Z,23.45
2018-09-13T06:17:22.124Z,23.44
2018-09-13T06:17:53.733Z,23.45
2018-09-13T06:18:25.339Z,23.45
2018-09-13T06:18:56.933Z,23.45
2018-09-13T06:19:28.520Z,23.45
2018-09-13T06:20:00.130Z,23.44
2018-09-13T06:20:31.710Z,23.45
2018-09-13T06:21:03.314Z,23.45
2018-09-13T06:21:34.904Z,23.45
2018-09-13T06:22:06.492Z,23.45
2018-09-13T06:22:38.123Z,23.45
2018-09-13T06:23:09.715Z,23.45
2018-09-13T06:23:41.306Z,23.45
2018-09-13T06:24:12.896Z,23.45
2018-09-13T06:24:44.499Z,23.44
2018-09-13T06:25:16.102Z,23.44
2018-09-13T06:25:47.705Z,23.44
2018-09-13T06:26:19.310Z,23.45
2018-09-13T06:26:50.902Z,23.45
2018-09-13T06:27:22.528Z,23.44
2018-09-13T06:27:54.148Z,23.45
2018-09-13T06:28:25.737Z,23.44
2018-09-13T06:28:57.314Z,23.44
2018-09-13T06:29:28.919Z,23.44
2018-09-13T06:30:00.498Z,23.44
2018-09-13T06:30:32.092Z,23.44
2018-09-13T06:31:03.697Z,23.44
2018-09-13T06:31:35.286Z,23.43
2018-09-13T06:32:06.885Z,23.43
2018-09-13T06:32:38.518Z,23.43
2018-09-13T06:33:10.125Z,23.43
2018-09-13T06:33:41.702Z,23.43
2018-09-13T06:34:13.301Z,23.42
2018-09-13T06:34:44.899Z,23.43
2018-09-13T06:35:16.497Z,23.25
2018-09-13T06:35:48.092Z,23.43
2018-09-13T06:36:19.745Z,23.43
2018-09-13T06:36:51.464Z,23.43
2018-09-13T06:37:23.069Z,23.42
2018-09-13T06:37:54.709Z,23.26
2018-09-13T06:38:26.377Z,23.43
2018-09-13T06:38:57.954Z,23.42
2018-09-13T06:39:29.549Z,23.42
2018-09-13T06:40:01.136Z,23.43
2018-09-13T06:40:32.738Z,23.42
2018-09-13T06:41:04.323Z,23.42
2018-09-13T06:41:35.906Z,23.42
2018-09-13T06:42:07.492Z,23.42
2018-09-13T06:42:39.085Z,23.42
2018-09-13T06:43:10.694Z,23.41
2018-09-13T06:43:42.294Z,23.42
2018-09-13T06:44:13.884Z,23.42
2018-09-13T06:44:45.475Z,23.42
2018-09-13T06:45:17.058Z,23.41
2018-09-13T06:45:48.634Z,23.41
2018-09-13T06:46:20.224Z,23.41
2018-09-13T06:46:51.827Z,23.41
2018-09-13T06:47:23.438Z,23.42
2018-09-13T06:47:55.070Z,23.41